createdAt,value
2018-12-16T00:00:33.104Z,4.45
2018-12-16T00:03:01.150Z,4.48
2018-12-16T00:05:29.227Z,4.45
2018-12-16T00:07:57.205Z,4.45
2018-12-16T00:10:25.164Z,4.43
2018-12-16T00:12:53.246Z,4.46
2018-12-16T00:15:21.327Z,4.50
2018-12-16T00:17:49.322Z,4.59
2018-12-16T00:20:17.326Z,4.50
2018-12-16T00:22:45.330Z,4.50
2018-12-16T00:25:13.525Z,4.41
2018-12-16T00:27:41.475Z,4.30
2018-12-16T00:30:09.582Z,4.36
2018-12-16T00:32:37.685Z,4.33
2018-12-16T00:35:05.930Z,4.34
2018-12-16T00:37:33.868Z,4.30
2018-12-16T00:40:01.877Z,4.29
2018-12-16T00:42:30.004Z,4.50
2018-12-16T00:44:58.097Z,4.59
2018-12-16T00:47:26.041Z,4.71
2018-12-16T00:49:54.043Z,4.65
2018-12-16T00:52:22.217Z,4.73
2018-12-16T00:54:50.330Z,4.60
2018-12-16T00:57:18.886Z,4.69
2018-12-16T00:59:46.893Z,4.90
2018-12-16T01:02:20.338Z,4.98
2018-12-16T01:04:48.366Z,4.91
2018-12-16T01:07:16.315Z,4.95
2018-12-16T01:09:44.356Z,4.80
2018-12-16T01:12:15.331Z,4.69
2018-12-16T01:14:43.457Z,4.71
2018-12-16T01:17:11.418Z,4.57
2018-12-16T01:19:39.372Z,4.62
2018-12-16T01:22:07.309Z,4.44
2018-12-16T01:24:35.383Z,4.33
2018-12-16T01:27:03.447Z,4.52
2018-12-16T01:29:31.446Z,4.60
2018-12-16T01:31:59.390Z,4.78
2018-12-16T01:34:27.484Z,4.83
2018-12-16T01:36:55.534Z,4.79
2018-12-16T01:39:23.505Z,4.91
2018-12-16T01:41:51.460Z,4.94
2018-12-16T01:44:19.482Z,4.95
2018-12-16T01:46:47.475Z,4.97
2018-12-16T01:49:15.384Z,4.89
2018-12-16T01:51:43.492Z,4.71
2018-12-16T01:54:11.361Z,4.56
2018-12-16T01:56:39.267Z,4.45
2018-12-16T01:59:07.318Z,4.50
2018-12-16T02:01:35.375Z,4.59
2018-12-16T02:04:03.298Z,4.47
2018-12-16T02:06:31.312Z,4.53
2018-12-16T02:08:59.230Z,4.71
2018-12-16T02:11:27.226Z,4.67
2018-12-16T02:13:55.083Z,4.77
2018-12-16T02:16:23.186Z,4.78
2018-12-16T02:18:51.466Z,4.79
2018-12-16T02:21:19.560Z,4.79
2018-12-16T02:23:47.816Z,4.72
2018-12-16T02:26:16.399Z,4.81
2018-12-16T02:28:44.879Z,4.65
2018-12-16T02:31:13.155Z,4.62
2018-12-16T02:33:41.150Z,4.71
2018-12-16T02:36:09.262Z,4.75
2018-12-16T02:38:37.248Z,4.88
2018-12-16T02:41:05.293Z,4.92
2018-12-16T02:43:33.167Z,4.97
2018-12-16T02:46:01.241Z,5.01
2018-12-16T02:48:29.271Z,4.88
2018-12-16T02:50:57.310Z,4.86
2018-12-16T02:53:25.628Z,4.67
2018-12-16T02:55:53.778Z,4.65
2018-12-16T02:58:21.713Z,4.57
2018-12-16T03:00:49.682Z,4.57
2018-12-16T03:03:17.701Z,4.56
2018-12-16T03:05:45.953Z,4.56
2018-12-16T03:08:14.086Z,4.76
2018-12-16T03:10:42.091Z,4.77
2018-12-16T03:13:10.387Z,4.91
2018-12-16T03:15:38.663Z,4.91
2018-12-16T03:18:06.499Z,4.94
2018-12-16T03:20:34.556Z,4.75
2018-12-16T03:23:02.569Z,4.78
2018-12-16T03:25:30.842Z,4.93
2018-12-16T03:27:59.029Z,5.03
2018-12-16T03:30:27.401Z,4.96
2018-12-16T03:32:55.882Z,4.92
2018-12-16T03:35:24.334Z,4.84
2018-12-16T03:37:52.316Z,4.79
2018-12-16T03:40:20.125Z,4.81
2018-12-16T03:42:48.023Z,4.86
2018-12-16T03:45:16.007Z,4.63
2018-12-16T03:47:44.323Z,4.65
2018-12-16T03:50:12.312Z,4.54
2018-12-16T03:52:40.349Z,4.63
2018-12-16T03:55:08.672Z,4.54
2018-12-16T03:57:36.979Z,4.50
2018-12-16T04:00:05.710Z,4.49
2018-12-16T04:02:33.924Z,4.48
2018-12-16T04:05:01.942Z,4.52
2018-12-16T04:07:30.030Z,4.52
2018-12-16T04:09:58.082Z,4.46
2018-12-16T04:12:26.262Z,4.34
2018-12-16T04:14:54.599Z,4.40
2018-12-16T04:17:22.740Z,4.47
2018-12-16T04:19:50.991Z,4.40
2018-12-16T04:22:19.168Z,4.37
2018-12-16T04:24:47.340Z,4.52
2018-12-16T04:27:15.329Z,4.48
2018-12-16T04:29:43.389Z,4.46
2018-12-16T04:32:11.544Z,4.44
2018-12-16T04:34:39.632Z,4.37
2018-12-16T04:37:07.743Z,4.33
2018-12-16T04:39:35.878Z,4.32
2018-12-16T04:42:04.123Z,4.22
2018-12-16T04:44:32.329Z,4.18
2018-12-16T04:47:00.502Z,4.07
2018-12-16T04:49:28.470Z,4.23
2018-12-16T04:51:56.618Z,4.05
2018-12-16T04:54:24.670Z,4.12
2018-12-16T04:56:52.958Z,4.05
2018-12-16T04:59:21.265Z,4.09
2018-12-16T05:01:49.344Z,4.14
2018-12-16T05:04:17.523Z,4.12
2018-12-16T05:06:45.867Z,4.23
2018-12-16T05:09:14.071Z,4.34
2018-12-16T05:11:42.044Z,4.30
2018-12-16T05:14:11.099Z,4.37
2018-12-16T05:16:39.724Z,4.45
2018-12-16T05:19:08.124Z,4.47
2018-12-16T05:21:39.401Z,4.47
2018-12-16T05:24:07.863Z,4.52
2018-12-16T05:26:36.550Z,4.52
2018-12-16T05:29:04.607Z,4.56
2018-12-16T05:31:33.226Z,4.66
2018-12-16T05:34:01.497Z,4.59
2018-12-16T05:36:29.974Z,4.54
2018-12-16T05:38:58.523Z,4.52
2018-12-16T05:41:27.203Z,4.50
2018-12-16T05:43:56.344Z,4.50
2018-12-16T05:46:25.415Z,4.55
2018-12-16T05:48:53.844Z,4.55
2018-12-16T05:51:22.557Z,4.57
2018-12-16T05:53:50.895Z,4.52
2018-12-16T05:56:19.652Z,4.54
2018-12-16T05:58:47.657Z,4.24
2018-12-16T06:01:16.556Z,4.30
2018-12-16T06:03:45.032Z,4.16
2018-12-16T06:06:14.287Z,4.14
2018-12-16T06:08:42.525Z,4.13
2018-12-16T06:11:10.959Z,4.16
2018-12-16T06:13:39.893Z,4.07
2018-12-16T06:16:08.686Z,4.03
2018-12-16T06:18:37.573Z,4.03
2018-12-16T06:21:05.828Z,4.11
2018-12-16T06:23:34.309Z,4.05
2018-12-16T06:26:02.542Z,3.97
2018-12-16T06:28:30.605Z,3.97
2018-12-16T06:30:58.686Z,3.91
2018-12-16T06:33:26.916Z,3.93
2018-12-16T06:35:55.148Z,3.86
2018-12-16T06:38:23.326Z,3.68
2018-12-16T06:40:51.610Z,3.59
2018-12-16T06:43:19.898Z,3.47
2018-12-16T06:45:48.196Z,3.31
2018-12-16T06:48:17.578Z,3.18
2018-12-16T06:50:45.791Z,3.06
2018-12-16T06:53:13.889Z,3.02
2018-12-16T06:55:43.389Z,2.86
2018-12-16T06:58:12.144Z,2.78
2018-12-16T07:00:40.417Z,2.69
2018-12-16T07:03:08.658Z,2.63
2018-12-16T07:05:38.067Z,2.46
2018-12-16T07:08:07.142Z,2.44
2018-12-16T07:10:37.033Z,2.45
2018-12-16T07:13:05.191Z,2.28
2018-12-16T07:15:35.804Z,2.21
2018-12-16T07:18:05.516Z,2.19
2018-12-16T07:20:36.411Z,2.15
2018-12-16T07:23:06.706Z,1.86
2018-12-16T07:25:37.363Z,1.67
2018-12-16T07:28:08.010Z,1.36
2018-12-16T07:30:36.477Z,1.17
2018-12-16T07:33:05.893Z,1.14
2018-12-16T07:35:37.789Z,0.84
2018-12-16T07:38:06.400Z,0.68
2018-12-16T07:40:36.791Z,0.51
2018-12-16T07:43:05.379Z,0.46
2018-12-16T07:45:35.281Z,0.34
2018-12-16T07:48:03.801Z,0.39
2018-12-16T07:50:38.359Z,0.36
2018-12-16T07:53:10.027Z,0.25
2018-12-16T07:55:40.224Z,0.31
2018-12-16T07:58:09.794Z,0.47
2018-12-16T08:00:38.654Z,0.31
2018-12-16T08:03:08.366Z,0.26
2018-12-16T08:05:37.696Z,0.24
2018-12-16T08:08:07.167Z,0.21
2018-12-16T08:10:36.825Z,0.17
2018-12-16T08:13:05.262Z,-0.01
2018-12-16T08:15:33.503Z,-0.33
2018-12-16T08:18:02.016Z,-0.25
2018-12-16T08:20:30.276Z,-0.52
2018-12-16T08:22:58.915Z,-0.52
2018-12-16T08:25:27.321Z,-0.59
2018-12-16T08:27:56.376Z,-0.63
2018-12-16T08:30:28.611Z,-0.75
2018-12-16T08:33:01.100Z,-0.72
2018-12-16T08:35:35.170Z,-0.68
2018-12-16T08:38:14.382Z,-0.80
2018-12-16T08:40:55.001Z,-0.94
2018-12-16T08:43:32.982Z,-0.77
2018-12-16T08:46:09.962Z,-0.92
2018-12-16T08:49:14.983Z,-1.16
2018-12-16T08:52:02.192Z,-1.14
2018-12-16T08:54:37.878Z,-1.25
2018-12-16T08:57:08.645Z,-1.39
2018-12-16T08:59:38.154Z,-1.34
2018-12-16T09:02:06.993Z,-1.44
2018-12-16T09:04:35.534Z,-1.40
2018-12-16T09:07:04.789Z,-1.21
2018-12-16T09:48:11.738Z,-1.47
2018-12-16T09:50:40.374Z,-1.44
2018-12-16T09:53:09.167Z,-1.45
2018-12-16T09:55:37.746Z,-1.47
2018-12-16T09:58:06.572Z,-1.55
2018-12-16T10:00:35.411Z,-1.31
2018-12-16T10:03:04.946Z,-1.32
2018-12-16T10:05:33.479Z,-1.38
2018-12-16T10:08:02.320Z,-1.45
2018-12-16T10:10:30.893Z,-1.44
2018-12-16T10:12:59.431Z,-1.42
2018-12-16T10:15:29.447Z,-1.63
2018-12-16T10:17:58.162Z,-1.62
2018-12-16T10:20:26.929Z,-1.58
2018-12-16T10:22:55.759Z,-1.54
2018-12-16T10:25:24.532Z,-1.53
2018-12-16T10:27:53.316Z,-1.45
2018-12-16T10:30:22.523Z,-1.58
2018-12-16T10:32:51.248Z,-1.46
2018-12-16T10:35:19.917Z,-1.51
2018-12-16T10:37:48.784Z,-1.60
2018-12-16T10:40:17.506Z,-1.58
2018-12-16T10:42:46.134Z,-1.80
2018-12-16T10:45:14.633Z,-1.71
2018-12-16T10:47:42.979Z,-1.76
2018-12-16T10:50:11.621Z,-1.69
2018-12-16T10:52:40.459Z,-1.81
2018-12-16T10:55:09.256Z,-1.71
2018-12-16T10:57:37.732Z,-1.85
2018-12-16T11:00:09.110Z,-1.84
2018-12-16T11:02:37.947Z,-1.87
2018-12-16T11:05:06.647Z,-1.91
2018-12-16T11:07:35.457Z,-1.94
2018-12-16T11:10:04.283Z,-2.09
2018-12-16T11:12:33.975Z,-2.20
2018-12-16T11:15:02.603Z,-2.13
2018-12-16T11:17:31.475Z,-2.15
2018-12-16T11:19:59.951Z,-2.13
2018-12-16T11:22:28.403Z,-2.15
2018-12-16T11:24:57.309Z,-2.04
2018-12-16T11:27:26.523Z,-2.03
2018-12-16T11:29:55.957Z,-2.08
2018-12-16T11:32:25.845Z,-2.12
2018-12-16T11:34:54.806Z,-2.03
2018-12-16T11:37:23.678Z,-2.09
2018-12-16T11:39:53.552Z,-2.10
2018-12-16T11:42:22.895Z,-2.02
2018-12-16T11:44:51.718Z,-1.89
2018-12-16T11:47:20.711Z,-1.87
2018-12-16T11:49:49.663Z,-1.83
2018-12-16T11:52:18.739Z,-1.74
2018-12-16T11:54:47.336Z,-1.80
2018-12-16T11:57:16.155Z,-1.72
2018-12-16T11:59:45.324Z,-1.61
2018-12-16T12:02:21.945Z,-1.55
2018-12-16T12:04:50.990Z,-1.65
2018-12-16T12:07:20.161Z,-1.62
2018-12-16T12:09:49.195Z,-1.62
2018-12-16T12:12:18.397Z,-1.53
2018-12-16T12:14:48.115Z,-1.49
2018-12-16T12:17:17.454Z,-1.63
2018-12-16T12:19:46.100Z,-1.85
2018-12-16T12:22:16.330Z,-1.72
2018-12-16T12:24:46.195Z,-1.75
2018-12-16T12:27:15.604Z,-1.77
2018-12-16T12:29:45.907Z,-1.89
2018-12-16T12:32:15.019Z,-1.80
2018-12-16T12:34:45.382Z,-1.87
2018-12-16T12:37:14.940Z,-1.84
2018-12-16T12:39:43.837Z,-1.83
2018-12-16T12:42:12.820Z,-1.68
2018-12-16T12:44:42.398Z,-1.66
2018-12-16T12:47:11.313Z,-1.73
2018-12-16T12:49:44.993Z,-1.78
2018-12-16T12:52:10.295Z,-1.79
2018-12-16T12:54:39.467Z,-1.85
2018-12-16T12:57:08.600Z,-1.77
2018-12-16T12:59:38.025Z,-1.74
2018-12-16T13:02:07.156Z,-1.85
2018-12-16T13:04:36.051Z,-1.75
2018-12-16T13:07:05.600Z,-1.89
2018-12-16T13:09:34.348Z,-2.04
2018-12-16T13:12:03.526Z,-1.97
2018-12-16T13:14:32.030Z,-1.92
2018-12-16T13:17:00.447Z,-1.92
2018-12-16T13:19:29.770Z,-1.77
2018-12-16T13:21:58.403Z,-1.78
2018-12-16T13:24:26.642Z,-1.59
2018-12-16T13:26:55.066Z,-1.66
2018-12-16T13:29:23.173Z,-1.85
2018-12-16T13:31:51.385Z,-1.72
2018-12-16T13:34:19.487Z,-1.38
2018-12-16T13:36:47.888Z,-1.28
2018-12-16T13:39:16.318Z,-1.57
2018-12-16T13:41:44.551Z,-1.55
2018-12-16T13:44:12.742Z,-1.51
2018-12-16T13:46:40.944Z,-1.64
2018-12-16T13:49:09.143Z,-1.62
2018-12-16T13:51:37.758Z,-1.66
2018-12-16T13:54:06.113Z,-1.66
2018-12-16T13:56:34.493Z,-1.51
2018-12-16T13:59:02.974Z,-1.59
2018-12-16T14:01:31.271Z,-1.61
2018-12-16T14:03:59.635Z,-1.60
2018-12-16T14:06:27.974Z,-1.55
2018-12-16T14:08:56.273Z,-1.50
2018-12-16T14:11:24.696Z,-1.62
2018-12-16T14:13:53.059Z,-1.64
2018-12-16T14:16:21.442Z,-1.70
2018-12-16T14:18:49.661Z,-1.74
2018-12-16T14:21:18.123Z,-1.74
2018-12-16T14:23:46.619Z,-1.78
2018-12-16T14:26:14.938Z,-1.81
2018-12-16T14:28:43.526Z,-1.92
2018-12-16T14:31:12.069Z,-1.97
2018-12-16T14:33:45.670Z,-2.04
2018-12-16T14:36:15.189Z,-1.99
2018-12-16T14:38:43.504Z,-2.08
2018-12-16T14:41:11.787Z,-2.20
2018-12-16T14:43:40.238Z,-2.29
2018-12-16T14:46:08.594Z,-2.36
2018-12-16T14:48:37.253Z,-2.34
2018-12-16T14:51:06.544Z,-2.34
2018-12-16T14:53:36.239Z,-2.34
2018-12-16T14:56:04.725Z,-2.40
2018-12-16T14:58:33.000Z,-2.47
2018-12-16T15:01:01.358Z,-2.46
2018-12-16T15:03:29.601Z,-2.56
2018-12-16T15:05:57.888Z,-2.49
2018-12-16T15:08:26.258Z,-2.52
2018-12-16T15:10:54.531Z,-2.53
2018-12-16T15:13:22.936Z,-2.51
2018-12-16T15:15:51.210Z,-2.50
2018-12-16T15:18:19.525Z,-2.57
2018-12-16T15:20:48.123Z,-2.57
2018-12-16T15:23:16.319Z,-2.56
2018-12-16T15:25:44.673Z,-2.60
2018-12-16T15:28:13.080Z,-2.66
2018-12-16T15:30:41.839Z,-2.69
2018-12-16T15:33:10.150Z,-2.62
2018-12-16T15:35:38.441Z,-2.61
2018-12-16T15:38:06.693Z,-2.55
2018-12-16T15:40:35.206Z,-2.66
2018-12-16T15:43:03.779Z,-2.67
2018-12-16T15:45:32.194Z,-2.71
2018-12-16T15:48:00.593Z,-2.60
2018-12-16T15:50:28.992Z,-2.63
2018-12-16T15:52:57.341Z,-2.64
2018-12-16T15:55:25.637Z,-2.66
2018-12-16T15:57:53.850Z,-2.71
2018-12-16T16:00:25.102Z,-2.64
2018-12-16T16:02:53.161Z,-2.62
2018-12-16T16:05:21.290Z,-2.68
2018-12-16T16:07:49.399Z,-2.70
2018-12-16T16:10:17.483Z,-2.65
2018-12-16T16:12:45.519Z,-2.71
2018-12-16T16:15:14.150Z,-2.70
2018-12-16T16:17:42.289Z,-2.79
2018-12-16T16:20:10.340Z,-2.83
2018-12-16T16:22:38.340Z,-2.77
2018-12-16T16:25:06.888Z,-2.84
2018-12-16T16:27:35.004Z,-2.81
2018-12-16T16:30:03.868Z,-2.83
2018-12-16T16:32:32.461Z,-2.83
2018-12-16T16:35:00.552Z,-2.85
2018-12-16T16:37:28.690Z,-2.89
2018-12-16T16:39:56.716Z,-2.95
2018-12-16T16:42:24.731Z,-3.01
2018-12-16T16:44:52.941Z,-3.01
2018-12-16T16:47:21.161Z,-2.98
2018-12-16T16:49:49.220Z,-3.11
2018-12-16T16:52:17.384Z,-3.11
2018-12-16T16:54:45.505Z,-3.14
2018-12-16T16:57:13.613Z,-3.09
2018-12-16T16:59:41.889Z,-3.19
2018-12-16T17:02:09.990Z,-3.23
2018-12-16T17:04:38.207Z,-3.24
2018-12-16T17:07:06.177Z,-3.19
2018-12-16T17:09:34.222Z,-3.14
2018-12-16T17:12:02.323Z,-3.20
2018-12-16T17:14:30.403Z,-3.23
2018-12-16T17:16:58.751Z,-3.17
2018-12-16T17:19:27.188Z,-3.16
2018-12-16T17:21:55.434Z,-3.19
2018-12-16T17:24:23.654Z,-3.24
2018-12-16T17:26:51.720Z,-3.28
2018-12-16T17:29:19.904Z,-3.33
2018-12-16T17:31:48.204Z,-3.34
2018-12-16T17:34:16.411Z,-3.25
2018-12-16T17:36:45.153Z,-3.30
2018-12-16T17:39:13.435Z,-3.26
2018-12-16T17:41:41.845Z,-3.23
2018-12-16T17:44:10.258Z,-3.23
2018-12-16T17:46:39.725Z,-3.29
2018-12-16T17:49:08.093Z,-3.29
2018-12-16T17:51:36.153Z,-3.29
2018-12-16T17:54:05.820Z,-3.27
2018-12-16T17:56:37.197Z,-3.29
2018-12-16T17:59:04.439Z,-3.23
2018-12-16T18:01:32.644Z,-3.30
2018-12-16T18:04:04.205Z,-3.24
2018-12-16T18:06:33.196Z,-3.26
2018-12-16T18:09:02.374Z,-3.29
2018-12-16T18:11:32.235Z,-3.28
2018-12-16T18:14:00.647Z,-3.27
2018-12-16T18:16:29.497Z,-3.20
2018-12-16T18:18:58.115Z,-3.25
2018-12-16T18:21:26.170Z,-3.21
2018-12-16T18:23:54.219Z,-3.20
2018-12-16T18:26:22.453Z,-3.12
2018-12-16T18:28:50.567Z,-3.19
2018-12-16T18:31:19.311Z,-3.19
2018-12-16T18:33:47.597Z,-3.17
2018-12-16T18:36:15.666Z,-3.19
2018-12-16T18:38:44.146Z,-3.20
2018-12-16T18:41:12.181Z,-3.28
2018-12-16T18:43:40.164Z,-3.35
2018-12-16T18:46:08.340Z,-3.31
2018-12-16T18:48:36.332Z,-3.29
2018-12-16T18:51:04.428Z,-3.34
2018-12-16T18:53:32.480Z,-3.34
2018-12-16T18:56:00.847Z,-3.50
2018-12-16T18:58:28.948Z,-3.44
2018-12-16T19:00:56.960Z,-3.36
2018-12-16T19:03:25.003Z,-3.40
2018-12-16T19:05:53.298Z,-3.41
2018-12-16T19:08:21.659Z,-3.42
2018-12-16T19:10:50.331Z,-3.44
2018-12-16T19:13:19.648Z,-3.50
2018-12-16T19:15:47.926Z,-3.47
2018-12-16T19:18:15.993Z,-3.49
2018-12-16T19:20:44.187Z,-3.57
2018-12-16T19:23:12.432Z,-3.52
2018-12-16T19:25:42.231Z,-3.52
2018-12-16T19:28:10.608Z,-3.57
2018-12-16T19:30:38.827Z,-3.65
2018-12-16T19:33:07.015Z,-3.50
2018-12-16T19:35:34.989Z,-3.55
2018-12-16T19:38:03.321Z,-3.61
2018-12-16T19:40:31.597Z,-3.62
2018-12-16T19:42:59.617Z,-3.62
2018-12-16T19:45:27.630Z,-3.62
2018-12-16T19:47:55.791Z,-3.68
2018-12-16T19:50:23.753Z,-3.69
2018-12-16T19:52:51.818Z,-3.70
2018-12-16T19:55:20.387Z,-3.68
2018-12-16T19:57:48.644Z,-3.65
2018-12-16T20:00:16.739Z,-3.68
2018-12-16T20:02:44.706Z,-3.71
2018-12-16T20:05:18.331Z,-3.77
2018-12-16T20:07:46.477Z,-3.79
2018-12-16T20:10:14.419Z,-3.76
2018-12-16T20:12:42.522Z,-3.81
2018-12-16T20:15:10.504Z,-3.85
2018-12-16T20:17:38.596Z,-3.82
2018-12-16T20:20:07.316Z,-3.89
2018-12-16T20:22:35.293Z,-3.94
2018-12-16T20:25:03.648Z,-4.00
2018-12-16T20:27:31.732Z,-4.03
2018-12-16T20:29:59.892Z,-4.25
2018-12-16T20:32:28.279Z,-4.23
2018-12-16T20:34:56.481Z,-4.30
2018-12-16T20:37:24.670Z,-4.31
2018-12-16T20:39:52.804Z,-4.36
2018-12-16T20:42:20.947Z,-4.46
2018-12-16T20:44:49.035Z,-4.46
2018-12-16T20:47:17.234Z,-4.49
2018-12-16T20:49:45.451Z,-4.56
2018-12-16T20:52:13.663Z,-4.63
2018-12-16T20:54:41.871Z,-4.56
2018-12-16T20:57:10.238Z,-4.57
2018-12-16T20:59:38.148Z,-4.64
2018-12-16T21:02:06.181Z,-4.53
2018-12-16T21:04:34.151Z,-4.53
2018-12-16T21:07:02.126Z,-4.53
2018-12-16T21:09:30.098Z,-4.47
2018-12-16T21:12:00.434Z,-4.47
2018-12-16T21:14:34.122Z,-4.49
2018-12-16T21:17:07.556Z,-4.53
2018-12-16T21:19:37.148Z,-4.63
2018-12-16T21:22:09.898Z,-4.65
2018-12-16T21:24:37.953Z,-4.56
2018-12-16T21:27:06.250Z,-4.45
2018-12-16T21:29:34.399Z,-4.40
2018-12-16T21:32:02.332Z,-4.33
2018-12-16T21:34:30.315Z,-4.32
2018-12-16T21:36:58.188Z,-4.28
2018-12-16T21:39:26.223Z,-4.23
2018-12-16T21:41:54.130Z,-4.22
2018-12-16T21:44:21.990Z,-4.22
2018-12-16T21:46:49.924Z,-4.23
2018-12-16T21:49:17.854Z,-4.25
2018-12-16T21:51:45.995Z,-4.17
2018-12-16T21:54:14.200Z,-4.23
2018-12-16T21:56:42.280Z,-4.26
2018-12-16T21:59:10.332Z,-4.23
2018-12-16T22:01:38.583Z,-4.15
2018-12-16T22:04:06.780Z,-4.28
2018-12-16T22:06:34.871Z,-4.22
2018-12-16T22:09:02.842Z,-4.19
2018-12-16T22:11:30.792Z,-4.25
2018-12-16T22:13:58.888Z,-4.27
2018-12-16T22:16:26.835Z,-4.28
2018-12-16T22:18:54.888Z,-4.24
2018-12-16T22:21:22.937Z,-4.29
2018-12-16T22:23:50.879Z,-4.23
2018-12-16T22:26:19.921Z,-4.27
2018-12-16T22:28:48.009Z,-4.25
2018-12-16T22:31:15.950Z,-4.34
2018-12-16T22:33:44.014Z,-4.30
2018-12-16T22:36:12.095Z,-4.25
2018-12-16T22:38:40.124Z,-4.27
2018-12-16T22:41:08.298Z,-4.26
2018-12-16T22:43:36.305Z,-4.25
2018-12-16T22:46:04.308Z,-4.29
2018-12-16T22:48:32.388Z,-4.21
2018-12-16T22:51:00.440Z,-4.19
2018-12-16T22:53:28.528Z,-4.15
2018-12-16T22:55:56.559Z,-4.24
2018-12-16T22:58:24.614Z,-4.19
2018-12-16T23:00:58.354Z,-4.20
2018-12-16T23:03:26.411Z,-4.17
2018-12-16T23:05:54.444Z,-4.21
2018-12-16T23:08:22.474Z,-4.25
2018-12-16T23:10:50.473Z,-4.25
2018-12-16T23:13:18.441Z,-4.36
2018-12-16T23:15:46.435Z,-4.38
2018-12-16T23:18:14.451Z,-4.35
2018-12-16T23:20:42.608Z,-4.34
2018-12-16T23:23:10.719Z,-4.40
2018-12-16T23:25:38.697Z,-4.41
2018-12-16T23:28:06.680Z,-4.41
2018-12-16T23:30:34.673Z,-4.45
2018-12-16T23:33:02.875Z,-4.52
2018-12-16T23:35:30.985Z,-4.51
2018-12-16T23:37:58.926Z,-4.61
2018-12-16T23:40:26.944Z,-4.69
2018-12-16T23:42:54.936Z,-4.71
2018-12-16T23:45:22.887Z,-4.80
2018-12-16T23:47:50.924Z,-4.82
2018-12-16T23:50:18.934Z,-4.81
2018-12-16T23:52:46.944Z,-4.82
2018-12-16T23:55:15.039Z,-4.76
2018-12-16T23:57:43.010Z,-4.79
